Decoded Metar for KFIT (FITCHBURG in MA, USA) (IATA:FIT) | Meteo·Mobile Aviation Weather
aviador You're here:

KFIT Decoded Metar

FITCHBURG in MA, USA
Report Time2020-02-22 20:52:00
UTC Time2020-02-22 21:48:00
Flight Rules vfr VFR
Wind280° at 10 kt
W.Decomp.*RWY 32: 9.1 kt HW 4.2 kt LCW
RWY 02: 0.9 kt HW 10 kt LCW
Visibility9999 m
Phenomena:N/A
Clouds:N/A
Expected CloudBase > 6,000 ft AGL from Temp-Dew spread
CeilingNone
Temp06°C (ISA -8)
Dew Point-9°C (34% RH)
AAT-0.6°C
QNH1019 hPa
Density Alt-823 ft
Elevation338 ft
Report Wrong Elevation
Raw Report
KFIT 222052Z AUTO 28010KT 10SM CLR 06/M09 A3008 RMK AO2 SLP191
T00611089 55003=

Extra information for KFIT:More info

Metar Taf Metar & Taf Last 4 Metars F.Rules Stats Wind Profile Meteogram Temp Stats Airport Information Weather charts Add Link Nearby VenuesMetar ALERT Operation Metar Decoded Social comments

AIRNAV info for KFIT